createdAt,value
2023-04-28T00:00:56.698Z,95952.03
2023-04-28T00:01:58.758Z,95955.34
2023-04-28T00:03:03.637Z,95950.06
2023-04-28T00:04:06.404Z,95954.19
2023-04-28T00:05:12.532Z,95947.22
2023-04-28T00:06:14.820Z,95942.91
2023-04-28T00:07:19.437Z,95947.09
2023-04-28T00:08:23.725Z,95944.38
2023-04-28T00:09:28.436Z,95938.97
2023-04-28T00:10:31.439Z,95936.28
2023-04-28T00:11:38.757Z,95932.66
2023-04-28T00:12:41.366Z,95934.25
2023-04-28T00:13:46.003Z,95932.44
2023-04-28T00:14:48.025Z,95936.56
2023-04-28T00:15:53.226Z,95930.38
2023-04-28T00:16:57.180Z,95920.78
2023-04-28T00:18:01.916Z,95924.13
2023-04-28T00:19:04.056Z,95927.50
2023-04-28T00:20:10.299Z,95925.69
2023-04-28T00:21:12.344Z,95923.69
2023-04-28T00:22:16.991Z,95919.41
2023-04-28T00:23:19.136Z,95922.66
2023-04-28T00:24:23.804Z,95920.84
2023-04-28T00:25:25.848Z,95917.22
2023-04-28T00:26:31.723Z,95925.66
2023-04-28T00:27:36.685Z,95914.31
2023-04-28T00:28:41.529Z,95916.84
2023-04-28T00:29:43.582Z,95909.00
2023-04-28T00:30:45.591Z,95911.53
2023-04-28T00:31:50.329Z,95903.09
2023-04-28T00:32:52.734Z,95906.44
2023-04-28T00:33:57.456Z,95901.19
2023-04-28T00:34:59.583Z,95895.03
2023-04-28T00:36:04.351Z,95890.72
2023-04-28T00:37:06.506Z,95898.38
2023-04-28T00:38:11.426Z,95892.22
2023-04-28T00:39:13.477Z,95889.56
2023-04-28T00:40:18.122Z,95889.56
2023-04-28T00:41:20.138Z,95897.34
2023-04-28T00:42:24.793Z,95894.75
2023-04-28T00:43:29.749Z,95903.19
2023-04-28T00:44:34.412Z,95897.13
2023-04-28T00:45:36.837Z,95896.13
2023-04-28T00:46:41.509Z,95894.31
2023-04-28T00:47:43.727Z,95898.50
2023-04-28T00:48:48.398Z,95902.53
2023-04-28T00:49:50.538Z,95897.34
2023-04-28T00:50:55.304Z,95903.44
2023-04-28T00:51:57.873Z,95894.78
2023-04-28T00:53:03.454Z,95888.69
2023-04-28T00:54:06.897Z,95889.44
2023-04-28T00:55:12.689Z,95896.22
2023-04-28T00:56:15.099Z,95902.31
2023-04-28T00:57:19.852Z,95897.97
2023-04-28T00:58:22.162Z,95896.69
2023-04-28T00:59:29.596Z,95895.03
2023-04-28T01:00:31.765Z,95894.94
2023-04-28T01:01:36.947Z,95884.59
2023-04-28T01:02:39.456Z,95888.94
2023-04-28T01:03:44.522Z,95887.16
2023-04-28T01:04:47.459Z,95882.81
2023-04-28T01:05:52.432Z,95885.28
2023-04-28T01:06:56.518Z,95882.56
2023-04-28T01:08:01.811Z,95878.97
2023-04-28T01:09:05.909Z,95878.97
2023-04-28T01:10:12.550Z,95877.28
2023-04-28T01:11:14.710Z,95875.47
2023-04-28T01:12:19.456Z,95880.63
2023-04-28T01:13:21.608Z,95879.72
2023-04-28T01:14:26.234Z,95874.53
2023-04-28T01:15:31.344Z,95877.13
2023-04-28T01:16:38.607Z,95857.19
2023-04-28T01:17:40.791Z,95864.97
2023-04-28T01:18:50.526Z,95861.59
2023-04-28T01:19:53.242Z,95855.69
2023-04-28T01:20:57.947Z,95859.00
2023-04-28T01:22:00.149Z,95858.13
2023-04-28T01:23:04.805Z,95857.13
2023-04-28T01:24:09.479Z,95857.03
2023-04-28T01:25:14.165Z,95855.38
2023-04-28T01:26:16.295Z,95850.19
2023-04-28T01:27:21.036Z,95852.78
2023-04-28T01:28:23.106Z,95847.63
2023-04-28T01:29:28.029Z,95851.09
2023-04-28T01:30:30.069Z,95847.78
2023-04-28T01:31:34.922Z,95845.91
2023-04-28T01:32:37.051Z,95851.88
2023-04-28T01:35:12.833Z,95842.44
2023-04-28T01:36:14.934Z,95848.59
2023-04-28T01:37:31.876Z,95846.78
2023-04-28T01:38:33.988Z,95852.03
2023-04-28T01:39:41.262Z,95854.59
2023-04-28T01:40:43.385Z,95852.94
2023-04-28T01:41:48.290Z,95854.75
2023-04-28T01:42:50.395Z,95847.00
2023-04-28T01:43:55.117Z,95854.09
2023-04-28T01:44:57.182Z,95853.22
2023-04-28T01:46:01.863Z,95848.97
2023-04-28T01:47:04.116Z,95854.09
2023-04-28T01:48:09.238Z,95844.56
2023-04-28T01:49:11.319Z,95851.56
2023-04-28T01:50:15.947Z,95850.63
2023-04-28T01:51:18.090Z,95853.09
2023-04-28T01:52:24.426Z,95855.75
2023-04-28T01:53:26.595Z,95854.75
2023-04-28T01:54:37.309Z,95848.66
2023-04-28T01:55:41.948Z,95844.25
2023-04-28T01:56:46.587Z,95841.59
2023-04-28T01:57:48.599Z,95842.44
2023-04-28T01:58:53.312Z,95839.75
2023-04-28T01:59:55.579Z,95838.94
2023-04-28T02:01:00.244Z,95847.47
2023-04-28T02:02:02.350Z,95842.13
2023-04-28T02:03:07.178Z,95840.13
2023-04-28T02:04:09.487Z,95843.91
2023-04-28T02:05:14.343Z,95843.00
2023-04-28T02:06:16.406Z,95842.69
2023-04-28T02:07:21.232Z,95844.28
2023-04-28T02:08:23.299Z,95846.06
2023-04-28T02:09:28.028Z,95844.63
2023-04-28T02:10:30.341Z,95851.56
2023-04-28T02:11:37.588Z,95853.38
2023-04-28T02:12:40.481Z,95849.25
2023-04-28T02:13:45.157Z,95845.22
2023-04-28T02:14:47.418Z,95854.84
2023-04-28T02:15:52.136Z,95847.28
2023-04-28T02:16:54.291Z,95838.09
2023-04-28T02:17:59.067Z,95833.75
2023-04-28T02:19:01.268Z,95835.72
2023-04-28T02:20:06.719Z,95841.06
2023-04-28T02:21:10.261Z,95832.53
2023-04-28T02:22:14.926Z,95835.22
2023-04-28T02:23:16.983Z,95835.38
2023-04-28T02:24:21.590Z,95829.34
2023-04-28T02:25:23.653Z,95830.41
2023-04-28T02:28:52.533Z,95822.59
2023-04-28T02:29:54.634Z,95817.16
2023-04-28T02:31:06.984Z,95819.84
2023-04-28T02:32:09.158Z,95821.28
2023-04-28T02:33:13.846Z,95816.16
2023-04-28T02:34:16.178Z,95817.16
2023-04-28T02:35:21.185Z,95820.88
2023-04-28T02:36:23.263Z,95820.72
2023-04-28T02:37:28.201Z,95821.50
2023-04-28T02:38:31.674Z,95817.16
2023-04-28T02:39:36.302Z,95815.34
2023-04-28T02:40:38.404Z,95811.97
2023-04-28T02:41:43.033Z,95818.03
2023-04-28T02:42:45.039Z,95818.91
2023-04-28T02:45:09.382Z,95817.88
2023-04-28T02:46:12.009Z,95815.19
2023-04-28T02:47:16.669Z,95817.00
2023-04-28T02:48:18.795Z,95810.09
2023-04-28T02:49:23.454Z,95809.25
2023-04-28T02:50:25.486Z,95811.00
2023-04-28T02:51:30.158Z,95814.50
2023-04-28T02:52:32.192Z,95812.59
2023-04-28T02:53:36.864Z,95807.34
2023-04-28T02:54:38.920Z,95809.84
2023-04-28T02:55:43.801Z,95811.53
2023-04-28T02:56:48.619Z,95810.47
2023-04-28T02:57:50.911Z,95796.69
2023-04-28T02:58:55.643Z,95798.34
2023-04-28T02:59:57.744Z,95802.53
2023-04-28T03:03:06.433Z,95797.97
2023-04-28T03:04:08.826Z,95797.03
2023-04-28T03:05:13.726Z,95803.13
2023-04-28T03:06:16.229Z,95797.03
2023-04-28T03:07:20.917Z,95797.03
2023-04-28T03:08:23.257Z,95803.13
2023-04-28T03:09:27.904Z,95802.97
2023-04-28T03:10:30.149Z,95799.41
2023-04-28T03:11:34.795Z,95800.22
2023-04-28T03:12:36.834Z,95802.81
2023-04-28T03:13:41.833Z,95804.41
2023-04-28T03:14:43.855Z,95796.41
2023-04-28T03:15:48.544Z,95799.78
2023-04-28T03:16:51.044Z,95799.63
2023-04-28T03:17:55.808Z,95795.94
2023-04-28T03:19:01.072Z,95794.88
2023-04-28T03:20:05.883Z,95795.78
2023-04-28T03:21:08.595Z,95792.28
2023-04-28T03:22:13.327Z,95792.34
2023-04-28T03:23:15.440Z,95795.78
2023-04-28T03:24:20.317Z,95787.16
2023-04-28T03:25:22.394Z,95783.81
2023-04-28T03:26:27.131Z,95783.91
2023-04-28T03:27:29.564Z,95785.69
2023-04-28T03:28:34.870Z,95778.91
2023-04-28T03:29:36.960Z,95777.03
2023-04-28T03:30:41.732Z,95770.03
2023-04-28T03:31:43.795Z,95771.69
2023-04-28T03:32:48.553Z,95769.88
2023-04-28T03:33:50.771Z,95769.81
2023-04-28T03:34:58.008Z,95762.88
2023-04-28T03:36:00.099Z,95770.63
2023-04-28T03:37:04.807Z,95772.41
2023-04-28T03:38:07.235Z,95762.88
2023-04-28T03:39:11.946Z,95760.19
2023-04-28T03:40:14.215Z,95761.94
2023-04-28T03:41:18.898Z,95767.13
2023-04-28T03:42:21.059Z,95765.47
2023-04-28T03:43:25.748Z,95769.72
2023-04-28T03:44:27.745Z,95769.66
2023-04-28T03:45:32.507Z,95768.59
2023-04-28T03:46:34.879Z,95770.94
2023-04-28T03:47:39.678Z,95772.59
2023-04-28T03:48:41.724Z,95776.78
2023-04-28T03:49:46.363Z,95768.94
2023-04-28T03:50:51.350Z,95771.44
2023-04-28T03:51:56.186Z,95767.84
2023-04-28T03:52:58.236Z,95767.69
2023-04-28T03:54:02.941Z,95772.63
2023-04-28T03:55:05.717Z,95767.94
2023-04-28T03:57:32.623Z,95757.56
2023-04-28T03:58:34.701Z,95763.59
2023-04-28T03:59:39.380Z,95761.75
2023-04-28T04:00:41.618Z,95767.75
2023-04-28T04:01:46.439Z,95769.63
2023-04-28T04:02:48.632Z,95769.03
2023-04-28T04:03:53.718Z,95775.97
2023-04-28T04:04:56.149Z,95771.84
2023-04-28T04:06:03.712Z,95767.69
2023-04-28T04:07:06.552Z,95773.78
2023-04-28T04:08:11.209Z,95772.19
2023-04-28T04:09:13.362Z,95768.00
2023-04-28T04:10:17.989Z,95766.41
2023-04-28T04:11:20.038Z,95763.00
2023-04-28T04:12:24.787Z,95767.09
2023-04-28T04:13:26.917Z,95771.44
2023-04-28T04:14:31.622Z,95779.31
2023-04-28T04:15:33.819Z,95776.78
2023-04-28T04:16:39.405Z,95770.00
2023-04-28T04:17:41.514Z,95763.16
2023-04-28T04:18:46.391Z,95765.75
2023-04-28T04:19:48.468Z,95763.06
2023-04-28T04:20:54.431Z,95764.84
2023-04-28T04:21:59.111Z,95762.25
2023-04-28T04:23:04.758Z,95756.16
2023-04-28T04:24:07.823Z,95760.41
2023-04-28T04:25:12.770Z,95751.06
2023-04-28T04:26:14.850Z,95757.88
2023-04-28T04:27:19.632Z,95753.56
2023-04-28T04:28:21.942Z,95757.66
2023-04-28T04:29:26.610Z,95758.41
2023-04-28T04:30:28.649Z,95759.91
2023-04-28T04:31:33.375Z,95764.25
2023-04-28T04:32:35.572Z,95759.91
2023-04-28T04:33:40.327Z,95755.66
2023-04-28T04:34:42.392Z,95755.56
2023-04-28T04:35:47.429Z,95759.91
2023-04-28T04:36:49.505Z,95758.91
2023-04-28T04:37:56.907Z,95759.75
2023-04-28T04:38:59.082Z,95762.31
2023-04-28T04:40:03.913Z,95758.91
2023-04-28T04:41:06.004Z,95761.44
2023-04-28T04:42:24.242Z,95759.56
2023-04-28T04:43:30.364Z,95758.50
2023-04-28T04:44:32.457Z,95755.91
2023-04-28T04:45:37.155Z,95757.56
2023-04-28T04:46:39.341Z,95755.75
2023-04-28T04:47:44.180Z,95748.91
2023-04-28T04:48:46.281Z,95753.91
2023-04-28T04:49:51.363Z,95754.66
2023-04-28T04:50:53.482Z,95751.16
2023-04-28T04:51:58.320Z,95762.16
2023-04-28T04:53:03.002Z,95758.69
2023-04-28T04:54:08.170Z,95764.59
2023-04-28T04:55:11.525Z,95763.59
2023-04-28T04:56:16.265Z,95766.00
2023-04-28T04:57:18.396Z,95759.00
2023-04-28T04:58:23.508Z,95762.41
2023-04-28T04:59:25.636Z,95766.59
2023-04-28T05:00:30.433Z,95763.81
2023-04-28T05:01:32.608Z,95764.59
2023-04-28T05:02:37.493Z,95759.31
2023-04-28T05:03:39.962Z,95759.88
2023-04-28T05:04:44.834Z,95764.16
2023-04-28T05:05:47.200Z,95765.59
2023-04-28T05:06:51.917Z,95761.88
2023-04-28T05:07:54.045Z,95766.81
2023-04-28T05:09:01.423Z,95765.63
2023-04-28T05:10:03.589Z,95764.53
2023-04-28T05:11:08.386Z,95760.84
2023-04-28T05:12:10.559Z,95754.72
2023-04-28T05:13:15.244Z,95755.47
2023-04-28T05:14:17.932Z,95759.72
2023-04-28T05:15:22.953Z,95754.47
2023-04-28T05:16:27.698Z,95750.00
2023-04-28T05:17:29.876Z,95758.47
2023-04-28T05:18:34.708Z,95753.28
2023-04-28T05:19:37.025Z,95756.72
2023-04-28T05:20:41.734Z,95750.59
2023-04-28T05:21:43.812Z,95755.69
2023-04-28T05:22:48.691Z,95756.59
2023-04-28T05:23:50.768Z,95751.41
2023-04-28T05:24:58.299Z,95746.16
2023-04-28T05:26:00.388Z,95746.97
2023-04-28T05:27:32.323Z,95744.13
2023-04-28T05:28:34.480Z,95737.94
2023-04-28T05:29:39.165Z,95731.63
2023-04-28T05:30:41.539Z,95734.78
2023-04-28T05:31:46.292Z,95733.59
2023-04-28T05:32:48.445Z,95735.00
2023-04-28T05:33:53.120Z,95734.63
2023-04-28T05:34:55.172Z,95732.41
2023-04-28T05:35:59.970Z,95729.44
2023-04-28T05:37:02.041Z,95722.03
2023-04-28T05:38:07.224Z,95721.56
2023-04-28T05:39:09.325Z,95725.47
2023-04-28T05:40:16.929Z,95729.31
2023-04-28T05:41:19.088Z,95731.22
2023-04-28T05:42:23.807Z,95724.84
2023-04-28T05:43:25.926Z,95731.22
2023-04-28T05:44:30.663Z,95735.56
2023-04-28T05:45:32.786Z,95729.56
2023-04-28T05:46:37.610Z,95734.56
2023-04-28T05:47:39.768Z,95736.97
2023-04-28T05:48:44.528Z,95735.03
2023-04-28T05:49:46.667Z,95723.53
2023-04-28T05:50:51.434Z,95736.13
2023-04-28T05:51:53.512Z,95736.13
2023-04-28T05:52:58.496Z,95745.78
2023-04-28T05:54:00.855Z,95740.69
2023-04-28T05:55:05.511Z,95745.78
2023-04-28T05:56:10.576Z,95746.53
2023-04-28T05:57:15.391Z,95751.53
2023-04-28T05:58:17.575Z,95758.50
2023-04-28T05:59:22.598Z,95757.47
2023-04-28T06:00:25.008Z,95755.63
2023-04-28T06:01:29.715Z,95758.88
2023-04-28T06:02:32.137Z,95750.06
2023-04-28T06:03:37.171Z,95750.97
2023-04-28T06:04:39.918Z,95748.38
2023-04-28T06:05:45.176Z,95748.47
2023-04-28T06:06:47.464Z,95750.44
2023-04-28T06:07:54.472Z,95758.88
2023-04-28T06:08:57.362Z,95749.94
2023-04-28T06:10:02.047Z,95751.28
2023-04-28T06:11:04.623Z,95755.53
2023-04-28T06:12:12.085Z,95747.56
2023-04-28T06:13:14.766Z,95750.78
2023-04-28T06:14:20.109Z,95752.66
2023-04-28T06:15:22.607Z,95743.91
2023-04-28T06:16:27.398Z,95752.47
2023-04-28T06:17:31.486Z,95744.56
2023-04-28T06:18:36.280Z,95742.59
2023-04-28T06:19:38.341Z,95734.81
2023-04-28T06:20:43.039Z,95738.81
2023-04-28T06:21:45.287Z,95731.97
2023-04-28T06:22:49.963Z,95722.59
2023-04-28T06:23:52.155Z,95723.72
2023-04-28T06:24:56.958Z,95723.16
2023-04-28T06:25:59.167Z,95731.72
2023-04-28T06:27:03.824Z,95731.97
2023-04-28T06:28:08.627Z,95741.16
2023-04-28T06:29:13.393Z,95740.22
2023-04-28T06:30:18.816Z,95739.09
2023-04-28T06:31:23.543Z,95737.53
2023-04-28T06:32:25.991Z,95742.72
2023-04-28T06:33:30.757Z,95739.09
2023-04-28T06:34:33.083Z,95730.66
2023-04-28T06:35:39.289Z,95738.19
2023-04-28T06:36:41.506Z,95733.81
2023-04-28T06:37:46.417Z,95738.00
2023-04-28T06:38:48.647Z,95744.88
2023-04-28T06:39:53.289Z,95745.19
2023-04-28T06:40:55.433Z,95743.81
2023-04-28T06:42:02.092Z,95733.41
2023-04-28T06:43:04.162Z,95731.56
2023-04-28T06:44:11.438Z,95733.75
2023-04-28T06:45:13.571Z,95736.13
2023-04-28T06:46:18.226Z,95735.00
2023-04-28T06:47:20.338Z,95729.09
2023-04-28T06:48:26.244Z,95730.75
2023-04-28T06:49:31.215Z,95735.75
2023-04-28T06:50:36.397Z,95730.56
2023-04-28T06:51:38.496Z,95731.59
2023-04-28T06:52:43.186Z,95727.41
2023-04-28T06:53:45.219Z,95735.19
2023-04-28T06:54:49.862Z,95733.25
2023-04-28T06:55:54.609Z,95736.50
2023-04-28T06:56:59.360Z,95734.81
2023-04-28T06:58:04.031Z,95729.63
2023-04-28T06:59:08.740Z,95731.66
2023-04-28T07:00:14.827Z,95731.66
2023-04-28T07:01:19.632Z,95734.38
2023-04-28T07:02:21.977Z,95733.59
2023-04-28T07:03:26.960Z,95738.03
2023-04-28T07:04:29.380Z,95737.59
2023-04-28T07:07:35.541Z,95739.63
2023-04-28T07:08:37.678Z,95734.72
2023-04-28T07:09:42.350Z,95729.03
2023-04-28T07:10:44.471Z,95726.38
2023-04-28T07:11:49.135Z,95734.97
2023-04-28T07:12:52.127Z,95732.00
2023-04-28T07:13:56.817Z,95730.44
2023-04-28T07:15:01.454Z,95733.13
2023-04-28T07:16:06.807Z,95730.88
2023-04-28T07:17:09.120Z,95720.25
2023-04-28T07:18:13.784Z,95725.34
2023-04-28T07:19:15.918Z,95723.00
2023-04-28T07:20:20.757Z,95726.44
2023-04-28T07:21:23.006Z,95730.53
2023-04-28T07:22:27.862Z,95731.81
2023-04-28T07:23:32.555Z,95730.81
2023-04-28T07:24:35.053Z,95724.78
2023-04-28T07:25:41.000Z,95729.41
2023-04-28T07:26:52.809Z,95721.63
2023-04-28T07:27:57.575Z,95734.41
2023-04-28T07:28:59.612Z,95723.84
2023-04-28T07:30:25.171Z,95724.59
2023-04-28T07:31:31.910Z,95726.19
2023-04-28T07:32:34.215Z,95736.44
2023-04-28T07:33:38.873Z,95729.41
2023-04-28T07:34:41.393Z,95734.72
2023-04-28T07:35:46.203Z,95731.25
2023-04-28T07:36:51.052Z,95720.69
2023-04-28T07:37:53.548Z,95729.22
2023-04-28T07:38:58.348Z,95724.03
2023-04-28T07:40:00.832Z,95715.63
2023-04-28T07:41:07.705Z,95713.78
2023-04-28T07:42:12.440Z,95718.47
2023-04-28T07:43:17.325Z,95711.19
2023-04-28T07:44:19.771Z,95708.09
2023-04-28T07:45:27.491Z,95709.03
2023-04-28T07:46:29.865Z,95707.72
2023-04-28T07:47:34.652Z,95710.25
2023-04-28T07:48:39.391Z,95711.81
2023-04-28T07:49:44.051Z,95713.84
2023-04-28T07:50:46.108Z,95707.47
2023-04-28T07:51:53.753Z,95708.28
2023-04-28T07:52:58.485Z,95714.69
2023-04-28T07:54:00.809Z,95715.50
2023-04-28T07:55:05.567Z,95712.28
2023-04-28T07:56:10.710Z,95715.16
2023-04-28T07:57:12.800Z,95709.09
2023-04-28T07:58:17.556Z,95706.31
2023-04-28T07:59:19.703Z,95701.81
2023-04-28T08:00:27.267Z,95708.41
2023-04-28T08:01:29.764Z,95705.63
2023-04-28T08:02:34.815Z,95706.25
2023-04-28T08:03:37.347Z,95705.44
2023-04-28T08:04:42.487Z,95703.78
2023-04-28T08:05:45.492Z,95705.34
2023-04-28T08:06:50.264Z,95707.66
2023-04-28T08:07:52.345Z,95704.16
2023-04-28T08:08:58.202Z,95704.88
2023-04-28T08:10:01.337Z,95703.78
2023-04-28T08:11:06.125Z,95707.75
2023-04-28T08:12:08.231Z,95713.13
2023-04-28T08:13:13.151Z,95711.25
2023-04-28T08:14:15.468Z,95716.19
2023-04-28T08:15:20.311Z,95708.66
2023-04-28T08:16:27.699Z,95712.19
2023-04-28T08:17:29.868Z,95705.16
2023-04-28T08:18:34.936Z,95710.81
2023-04-28T08:19:37.101Z,95710.72
2023-04-28T08:20:41.868Z,95715.00
2023-04-28T08:21:43.958Z,95711.25
2023-04-28T08:22:48.988Z,95711.25
2023-04-28T08:23:51.161Z,95711.94
2023-04-28T08:24:55.978Z,95713.31
2023-04-28T08:26:00.959Z,95717.22
2023-04-28T08:27:03.884Z,95721.13
2023-04-28T08:28:09.328Z,95724.47
2023-04-28T08:29:13.979Z,95724.34
2023-04-28T08:30:18.641Z,95731.41
2023-04-28T08:31:20.801Z,95734.94
2023-04-28T08:32:28.176Z,95730.69
2023-04-28T08:33:32.818Z,95730.56
2023-04-28T08:34:34.979Z,95730.38
2023-04-28T08:35:39.694Z,95733.72
2023-04-28T08:36:41.769Z,95741.13
2023-04-28T08:37:46.614Z,95744.56
2023-04-28T08:38:48.708Z,95745.63
2023-04-28T08:40:00.217Z,95752.34
2023-04-28T08:41:07.354Z,95755.34
2023-04-28T08:42:09.551Z,95756.16
2023-04-28T08:43:15.169Z,95758.59
2023-04-28T08:44:18.020Z,95757.66
2023-04-28T08:45:23.165Z,95761.09
2023-04-28T08:46:28.388Z,95767.13
2023-04-28T08:47:48.693Z,95765.47
2023-04-28T08:49:02.636Z,95764.72
2023-04-28T08:50:06.567Z,95755.81
2023-04-28T08:51:11.908Z,95759.13
2023-04-28T08:52:20.507Z,95762.28
2023-04-28T08:53:30.291Z,95755.22
2023-04-28T08:54:36.544Z,95760.44
2023-04-28T08:55:42.268Z,95763.78
2023-04-28T08:56:45.629Z,95762.75
2023-04-28T08:57:54.282Z,95761.91
2023-04-28T08:58:56.848Z,95755.63
2023-04-28T09:00:02.116Z,95760.00
2023-04-28T09:01:07.089Z,95764.50
2023-04-28T09:02:12.085Z,95762.28
2023-04-28T09:03:17.198Z,95756.06
2023-04-28T09:04:22.466Z,95759.97
2023-04-28T09:05:27.828Z,95754.66
2023-04-28T09:06:33.078Z,95748.72
2023-04-28T09:07:37.894Z,95762.88
2023-04-28T09:08:42.898Z,95754.09
2023-04-28T09:09:47.874Z,95755.72
2023-04-28T09:11:09.099Z,95754.59
2023-04-28T09:12:13.876Z,95751.00
2023-04-28T09:13:28.472Z,95756.84
2023-04-28T09:14:35.450Z,95763.50
2023-04-28T09:15:41.253Z,95759.28
2023-04-28T09:16:46.116Z,95759.50
2023-04-28T09:17:49.200Z,95761.47
2023-04-28T09:19:02.680Z,95761.66
2023-04-28T09:20:20.151Z,95758.13
2023-04-28T09:21:24.821Z,95754.97
2023-04-28T09:22:28.808Z,95757.28
2023-04-28T09:23:33.824Z,95761.00
2023-04-28T09:24:40.661Z,95756.56
2023-04-28T09:25:56.716Z,95759.75
2023-04-28T09:27:31.693Z,95758.19
2023-04-28T09:28:37.546Z,95754.16
2023-04-28T09:29:52.068Z,95755.22
2023-04-28T09:30:57.368Z,95755.72
2023-04-28T09:32:18.416Z,95765.84
2023-04-28T09:33:21.950Z,95762.09
2023-04-28T09:34:26.797Z,95757.16
2023-04-28T09:35:42.948Z,95762.94
2023-04-28T09:36:47.781Z,95761.91
2023-04-28T09:38:01.367Z,95765.09
2023-04-28T09:39:06.059Z,95768.22
2023-04-28T09:40:10.328Z,95766.75
2023-04-28T09:41:14.997Z,95767.59
2023-04-28T09:42:32.974Z,95767.78
2023-04-28T09:43:38.516Z,95764.22
2023-04-28T09:44:43.282Z,95771.97
2023-04-28T09:45:46.065Z,95764.91
2023-04-28T09:46:50.986Z,95755.63
2023-04-28T09:47:53.174Z,95756.78
2023-04-28T09:49:04.007Z,95750.53
2023-04-28T09:50:09.875Z,95752.13
2023-04-28T09:51:23.686Z,95757.22
2023-04-28T09:52:26.463Z,95763.50
2023-04-28T09:53:33.423Z,95753.41
2023-04-28T09:54:38.575Z,95754.25
2023-04-28T09:55:44.586Z,95756.56
2023-04-28T09:58:53.595Z,95753.53
2023-04-28T09:59:58.907Z,95750.94
2023-04-28T10:01:01.517Z,95751.84
2023-04-28T10:02:22.617Z,95746.22
2023-04-28T10:03:34.344Z,95754.34
2023-04-28T10:04:37.075Z,95747.28
2023-04-28T10:05:43.784Z,95749.59
2023-04-28T10:06:51.867Z,95745.63
2023-04-28T10:07:55.602Z,95740.97
2023-04-28T10:09:01.694Z,95738.97
2023-04-28T10:10:05.633Z,95736.53
2023-04-28T10:11:11.736Z,95736.53
2023-04-28T10:12:14.422Z,95734.00
2023-04-28T10:13:20.472Z,95723.97
2023-04-28T10:14:23.319Z,95731.16
2023-04-28T10:16:01.843Z,95731.78
2023-04-28T10:17:07.802Z,95731.19
2023-04-28T10:18:10.889Z,95737.31
2023-04-28T10:19:15.758Z,95737.31
2023-04-28T10:20:18.952Z,95740.22
2023-04-28T10:21:26.359Z,95739.88
2023-04-28T10:22:48.251Z,95740.06
2023-04-28T10:24:06.804Z,95742.91
2023-04-28T10:25:28.059Z,95737.41
2023-04-28T10:27:10.758Z,95745.63
2023-04-28T10:28:12.669Z,95750.31
2023-04-28T10:29:17.197Z,95748.31
2023-04-28T10:30:27.476Z,95754.88
2023-04-28T10:31:35.106Z,95761.53
2023-04-28T10:32:39.941Z,95752.09
2023-04-28T10:33:42.692Z,95751.75
2023-04-28T10:34:47.567Z,95752.50
2023-04-28T10:35:50.049Z,95744.19
2023-04-28T10:36:56.037Z,95751.06
2023-04-28T10:38:08.552Z,95743.78
2023-04-28T10:39:15.491Z,95746.31
2023-04-28T10:40:33.412Z,95752.88
2023-04-28T10:41:38.521Z,95741.22
2023-04-28T10:42:53.889Z,95748.50
2023-04-28T10:43:58.542Z,95742.81
2023-04-28T10:45:00.650Z,95742.19
2023-04-28T10:46:07.063Z,95748.59
2023-04-28T10:47:10.396Z,95743.59
2023-04-28T10:48:15.110Z,95747.13
2023-04-28T10:49:20.009Z,95744.75
2023-04-28T10:50:29.296Z,95747.34
2023-04-28T10:51:42.975Z,95748.50
2023-04-28T10:52:51.503Z,95749.63
2023-04-28T10:54:18.312Z,95740.25
2023-04-28T10:55:37.713Z,95745.03
2023-04-28T10:56:41.874Z,95737.41
2023-04-28T10:57:47.407Z,95733.53
2023-04-28T10:58:50.902Z,95748.69
2023-04-28T11:00:15.928Z,95750.63
2023-04-28T11:01:29.947Z,95739.69
2023-04-28T11:02:46.418Z,95747.50
2023-04-28T11:03:51.963Z,95744.38
2023-04-28T11:05:22.030Z,95757.19
2023-04-28T11:06:26.810Z,95759.28
2023-04-28T11:07:31.625Z,95745.00
2023-04-28T11:09:55.178Z,95745.41
2023-04-28T11:11:33.829Z,95761.28
2023-04-28T11:12:38.758Z,95754.16
2023-04-28T11:13:42.446Z,95750.19
2023-04-28T11:14:47.377Z,95754.53
2023-04-28T11:16:03.406Z,95746.75
2023-04-28T11:17:09.452Z,95753.19
2023-04-28T11:18:19.530Z,95747.25
2023-04-28T11:19:25.804Z,95748.25
2023-04-28T11:20:29.207Z,95746.16
2023-04-28T11:21:35.825Z,95751.19
2023-04-28T11:22:38.164Z,95743.44
2023-04-28T11:23:42.883Z,95740.00
2023-04-28T11:25:01.759Z,95747.28
2023-04-28T11:26:04.014Z,95740.00
2023-04-28T11:27:27.373Z,95747.59
2023-04-28T11:28:29.460Z,95740.06
2023-04-28T11:29:36.255Z,95745.44
2023-04-28T11:30:38.435Z,95740.34
2023-04-28T11:31:44.405Z,95746.25
2023-04-28T11:32:50.836Z,95743.88
2023-04-28T11:34:05.530Z,95756.72
2023-04-28T11:35:11.814Z,95753.22
2023-04-28T11:36:30.401Z,95745.53
2023-04-28T11:39:37.559Z,95754.28
2023-04-28T11:40:57.065Z,95754.84
2023-04-28T11:42:02.826Z,95760.34
2023-04-28T11:43:05.073Z,95755.19
2023-04-28T11:44:14.249Z,95771.44
2023-04-28T11:45:16.418Z,95764.75
2023-04-28T11:46:22.371Z,95762.53
2023-04-28T11:47:34.520Z,95766.13
2023-04-28T11:48:36.902Z,95771.56
2023-04-28T11:49:49.728Z,95769.88
2023-04-28T11:50:52.457Z,95760.63
2023-04-28T11:52:00.474Z,95763.75
2023-04-28T11:53:02.811Z,95762.81
2023-04-28T11:54:12.052Z,95769.22
2023-04-28T11:55:19.931Z,95771.84
2023-04-28T11:56:24.579Z,95752.13
2023-04-28T11:57:29.247Z,95755.56
2023-04-28T11:58:31.306Z,95761.28
2023-04-28T11:59:38.327Z,95754.03
2023-04-28T12:00:42.037Z,95754.38
2023-04-28T12:01:52.133Z,95757.69
2023-04-28T12:02:57.878Z,95761.66
2023-04-28T12:04:00.535Z,95743.31
2023-04-28T12:05:11.017Z,95749.00
2023-04-28T12:06:17.739Z,95743.44
2023-04-28T12:07:22.721Z,95741.56
2023-04-28T12:08:28.836Z,95745.34
2023-04-28T12:09:34.119Z,95749.16
2023-04-28T12:13:33.251Z,95735.63
2023-04-28T12:14:59.762Z,95736.19
2023-04-28T12:16:03.803Z,95732.50
2023-04-28T12:17:08.454Z,95744.66
2023-04-28T12:20:07.337Z,95752.28
2023-04-28T12:21:21.821Z,95747.66
2023-04-28T12:22:27.260Z,95744.69
2023-04-28T12:23:31.188Z,95744.44
2023-04-28T12:24:36.459Z,95741.34
2023-04-28T12:25:44.094Z,95741.13
2023-04-28T12:26:49.556Z,95744.06
2023-04-28T12:28:04.871Z,95746.56
2023-04-28T12:29:10.898Z,95739.22
2023-04-28T12:30:28.322Z,95740.97
2023-04-28T12:31:30.448Z,95742.44
2023-04-28T12:32:43.647Z,95743.13
2023-04-28T12:33:45.812Z,95729.31
2023-04-28T12:35:05.312Z,95737.06
2023-04-28T12:36:07.893Z,95741.09
2023-04-28T12:37:12.793Z,95730.31
2023-04-28T12:38:16.086Z,95725.41
2023-04-28T12:39:23.212Z,95733.22
2023-04-28T12:40:28.187Z,95737.16
2023-04-28T12:41:30.282Z,95744.97
2023-04-28T12:42:35.136Z,95739.03
2023-04-28T12:43:37.225Z,95741.31
2023-04-28T12:44:44.567Z,95735.38
2023-04-28T12:45:46.786Z,95739.53
2023-04-28T12:46:51.810Z,95739.19
2023-04-28T12:49:24.655Z,95740.97
2023-04-28T12:50:32.535Z,95743.94
2023-04-28T12:51:36.664Z,95730.88
2023-04-28T12:52:43.467Z,95752.75
2023-04-28T12:53:45.554Z,95742.94
2023-04-28T12:54:50.357Z,95743.16
2023-04-28T12:55:52.532Z,95747.44
2023-04-28T12:56:57.571Z,95734.16
2023-04-28T12:57:59.782Z,95742.00
2023-04-28T12:59:06.565Z,95741.13
2023-04-28T13:00:16.496Z,95743.16
2023-04-28T13:01:21.183Z,95758.09
2023-04-28T13:02:26.161Z,95754.84
2023-04-28T13:03:28.862Z,95757.09
2023-04-28T13:04:34.269Z,95768.78
2023-04-28T13:05:36.609Z,95771.03
2023-04-28T13:06:44.467Z,95769.81
2023-04-28T13:07:50.207Z,95774.81
2023-04-28T13:08:52.295Z,95767.34
2023-04-28T13:09:58.693Z,95772.28